Time;durP1;ratioP1;P1;durP2;ratioP2;P2;SDS_P1;SDS_P2;PMS_P1;PMS_P2;Temp;Humidity;BMP_temperature;BMP_pressure;BME280_temperature;BME280_humidity;BME280_pressure;Samples;Min_cycle;Max_cycle;Signal;HPM_P1;HPM_P2
2022/02/20 00:00:18;;;;;;;7.00;1.17;;;;;;;6.24;61.29;98704.91;2618338;39;20422;-65
2022/02/20 00:02:51;;;;;;;4.90;1.50;;;;;;;6.19;61.10;98700.16;2617671;54;20026;-65
2022/02/20 00:05:21;;;;;;;5.68;1.77;;;;;;;6.16;61.45;98696.09;2616932;54;20019;-65
2022/02/20 00:07:51;;;;;;;8.93;2.58;;;;;;;6.10;62.23;98709.06;2617754;54;20061;-63
2022/02/20 00:10:20;;;;;;;6.85;1.80;;;;;;;6.10;62.38;98712.50;2617284;47;20023;-63
2022/02/20 00:12:50;;;;;;;5.60;1.33;;;;;;;6.13;62.41;98693.78;2617904;54;20030;-63
2022/02/20 00:15:21;;;;;;;4.65;1.33;;;;;;;6.16;62.84;98697.88;2617786;54;20035;-66
2022/02/20 00:17:54;;;;;;;9.07;2.10;;;;;;;6.13;62.80;98693.78;2617672;54;20022;-63
2022/02/20 00:20:25;;;;;;;4.93;1.80;;;;;;;6.12;62.58;98694.78;2617860;39;20456;-64
2022/02/20 00:22:55;;;;;;;10.85;2.05;;;;;;;6.15;62.51;98704.13;2617287;54;20299;-65
2022/02/20 00:25:25;;;;;;;6.00;1.70;;;;;;;6.11;62.68;98692.31;2617817;54;20030;-65
2022/02/20 00:27:55;;;;;;;6.07;1.73;;;;;;;6.15;62.83;98697.06;2618020;54;20057;-65
2022/02/20 00:30:24;;;;;;;4.85;1.63;;;;;;;6.12;63.35;98686.91;2617929;54;20046;-65
2022/02/20 00:33:00;;;;;;;6.80;1.98;;;;;;;6.16;63.22;98679.50;2617660;54;20142;-65
2022/02/20 00:35:30;;;;;;;8.43;1.88;;;;;;;6.15;63.30;98675.25;2617109;51;20073;-65
2022/02/20 00:38:00;;;;;;;6.35;1.20;;;;;;;6.13;63.26;98688.53;2617363;54;20031;-64
2022/02/20 00:40:29;;;;;;;5.55;1.58;;;;;;;6.15;63.02;98681.31;2618008;54;20538;-65
2022/02/20 00:43:00;;;;;;;4.82;1.48;;;;;;;6.16;63.43;98680.34;2616684;54;20609;-64
2022/02/20 00:45:31;;;;;;;5.93;1.30;;;;;;;6.21;63.12;98692.97;2617973;31;20542;-65
2022/02/20 00:48:03;;;;;;;5.07;1.88;;;;;;;6.20;63.16;98692.16;2617749;54;20541;-66
2022/02/20 00:50:33;;;;;;;3.85;1.48;;;;;;;6.20;62.99;98700.03;2617560;47;20030;-65
2022/02/20 00:53:03;;;;;;;4.45;1.52;;;;;;;6.22;63.00;98709.53;2617815;54;20089;-64
2022/02/20 00:55:36;;;;;;;6.32;1.70;;;;;;;6.18;63.41;98717.72;2617162;54;20027;-65
2022/02/20 00:58:05;;;;;;;3.65;1.60;;;;;;;6.20;63.56;98688.69;2617677;31;20529;-64
2022/02/20 01:00:35;;;;;;;14.07;2.85;;;;;;;6.18;63.34;98712.47;2617097;54;20038;-64
2022/02/20 01:03:09;;;;;;;8.02;1.77;;;;;;;6.19;63.55;98727.22;2618642;54;20026;-67
2022/02/20 01:05:38;;;;;;;5.32;1.50;;;;;;;6.15;63.86;98712.00;2619783;54;20041;-64
2022/02/20 01:08:08;;;;;;;8.70;1.83;;;;;;;6.11;63.82;98724.63;2620362;54;20736;-64
2022/02/20 01:10:39;;;;;;;7.28;1.52;;;;;;;6.16;64.24;98717.09;2619782;47;20034;-65
2022/02/20 01:13:09;;;;;;;8.52;1.80;;;;;;;6.13;64.37;98709.53;2621049;54;20552;-64
2022/02/20 01:15:38;;;;;;;7.90;1.85;;;;;;;6.19;64.51;98718.53;2620399;54;20029;-64
2022/02/20 01:18:10;;;;;;;5.10;1.55;;;;;;;6.22;64.80;98720.03;2619160;54;20038;-65
2022/02/20 01:20:40;;;;;;;6.88;1.60;;;;;;;6.15;64.82;98725.09;2620638;54;20030;-65
2022/02/20 01:23:10;;;;;;;5.80;1.98;;;;;;;6.15;65.02;98725.09;2619983;54;20035;-64
2022/02/20 01:25:40;;;;;;;3.55;2.03;;;;;;;6.20;64.94;98731.53;2620691;54;20031;-64
2022/02/20 01:28:10;;;;;;;4.38;1.27;;;;;;;6.22;64.88;98722.66;2619575;51;20041;-65
2022/02/20 01:30:40;;;;;;;6.60;1.65;;;;;;;6.25;65.10;98720.53;2619414;47;20146;-64
2022/02/20 01:33:13;;;;;;;8.95;2.47;;;;;;;6.22;64.94;98744.47;2618554;54;20586;-64
2022/02/20 01:35:42;;;;;;;6.20;1.40;;;;;;;6.25;65.21;98732.81;2618041;31;20653;-64
2022/02/20 01:38:15;;;;;;;9.63;1.45;;;;;;;6.28;65.40;98729.84;2617375;54;20038;-65
2022/02/20 01:40:47;;;;;;;5.63;1.77;;;;;;;6.24;65.51;98746.91;2619188;54;20031;-64
2022/02/20 01:43:17;;;;;;;5.18;1.48;;;;;;;6.29;65.42;98739.38;2620204;54;20035;-65
2022/02/20 01:45:48;;;;;;;5.68;2.20;;;;;;;6.27;65.66;98747.41;2620044;54;20041;-65
2022/02/20 01:48:22;;;;;;;8.10;1.80;;;;;;;6.34;65.45;98747.56;2620160;39;20427;-63
2022/02/20 01:50:51;;;;;;;4.72;1.30;;;;;;;6.38;65.18;98736.56;2619246;54;20026;-64
2022/02/20 01:53:21;;;;;;;2.35;1.10;;;;;;;6.38;65.86;98751.50;2617559;47;20038;-64
2022/02/20 01:55:52;;;;;;;4.95;1.20;;;;;;;6.37;65.69;98747.25;2616663;47;20027;-64
2022/02/20 01:58:40;;;;;;;5.50;1.58;;;;;;;6.38;65.58;98747.06;2617799;54;20037;-64
2022/02/20 02:01:28;;;;;;;7.13;1.60;;;;;;;6.39;65.90;98742.63;2616759;54;20098;-67
2022/02/20 02:04:09;;;;;;;7.53;1.60;;;;;;;6.39;66.07;98738.19;2616691;54;20649;-64
2022/02/20 02:06:45;;;;;;;3.85;1.63;;;;;;;6.41;66.25;98736.25;2616597;54;20038;-64
2022/02/20 02:09:19;;;;;;;5.07;1.67;;;;;;;6.37;66.54;98753.31;2617035;39;20445;-64
2022/02/20 02:12:01;;;;;;;;;;;;;;;6.39;66.39;98745.25;2617735;54;20022;-63
2022/02/20 02:14:57;;;;;;;6.97;1.42;;;;;;;6.42;66.55;98739.69;2617388;54;19966;-64
2022/02/20 02:17:46;;;;;;;5.88;1.80;;;;;;;6.40;67.19;98742.47;2618128;39;20418;-61
2022/02/20 02:20:28;;;;;;;6.28;1.75;;;;;;;6.43;67.09;98744.75;2617493;46;20035;-64
2022/02/20 02:23:13;;;;;;;4.68;1.40;;;;;;;6.44;66.97;98745.56;2617982;54;20038;-65
2022/02/20 02:26:08;;;;;;;6.10;1.73;;;;;;;6.41;67.35;98744.13;2617268;54;20038;-63
2022/02/20 02:28:47;;;;;;;6.22;1.52;;;;;;;6.42;67.66;98740.50;2617379;47;20034;-67
2022/02/20 02:31:20;;;;;;;7.18;1.40;;;;;;;6.39;68.23;98738.19;2617961;54;20069;-64
2022/02/20 02:33:51;;;;;;;8.02;2.00;;;;;;;6.39;68.09;98732.13;2617380;54;20139;-65
2022/02/20 02:36:21;;;;;;;5.50;1.45;;;;;;;6.42;68.00;98751.00;2617932;47;20029;-64
2022/02/20 02:38:53;;;;;;;4.20;1.70;;;;;;;6.47;67.86;98745.25;2617688;54;20053;-64
2022/02/20 02:41:23;;;;;;;8.57;1.77;;;;;;;6.45;68.16;98742.78;2617521;54;20037;-66
2022/02/20 02:43:56;;;;;;;5.40;1.85;;;;;;;6.47;68.49;98752.31;2617837;39;20562;-64
2022/02/20 02:46:28;;;;;;;6.68;1.58;;;;;;;6.49;68.53;98745.91;2617371;39;20418;-64
2022/02/20 02:49:00;;;;;;;7.07;1.60;;;;;;;6.48;69.19;98754.75;2617595;54;20031;-63
2022/02/20 02:51:30;;;;;;;8.25;1.92;;;;;;;6.43;69.22;98739.50;2617329;54;20034;-65
2022/02/20 02:54:02;;;;;;;6.20;1.85;;;;;;;6.47;69.54;98753.13;2617184;54;20038;-64
2022/02/20 02:56:32;;;;;;;8.70;1.83;;;;;;;6.50;69.16;98760.69;2617371;54;20038;-64
2022/02/20 02:59:02;;;;;;;6.53;1.77;;;;;;;6.53;69.10;98764.75;2617168;54;20035;-64
2022/02/20 03:01:33;;;;;;;6.13;2.03;;;;;;;6.57;69.57;98761.66;2617218;54;20031;-63
2022/02/20 03:04:03;;;;;;;3.85;1.45;;;;;;;6.59;69.62;98770.16;2617556;54;20042;-64
2022/02/20 03:06:33;;;;;;;9.40;1.77;;;;;;;6.60;69.69;98761.28;2617929;39;20411;-66
2022/02/20 03:09:09;;;;;;;5.85;2.05;;;;;;;6.59;70.79;98766.72;2617253;54;20038;-67
2022/02/20 03:11:41;;;;;;;9.35;2.10;;;;;;;6.57;72.00;98763.44;2617204;54;20582;-66
2022/02/20 03:14:17;;;;;;;4.57;1.70;;;;;;;6.54;71.85;98758.53;2617090;54;20038;-66
2022/02/20 03:16:46;;;;;;;4.55;2.22;;;;;;;6.56;71.67;98765.25;2617309;47;20038;-63
2022/02/20 03:19:16;;;;;;;6.70;1.65;;;;;;;6.51;71.52;98767.56;2617251;54;20521;-65
2022/02/20 03:21:46;;;;;;;4.80;2.00;;;;;;;6.50;71.48;98767.75;2617063;54;20557;-65
2022/02/20 03:24:23;;;;;;;;;;;;;;;6.50;71.49;98781.69;2617267;54;20023;-65
2022/02/20 03:26:54;;;;;;;6.17;1.73;;;;;;;6.51;71.39;98775.44;2617526;54;19943;-65
2022/02/20 03:29:31;;;;;;;5.78;1.95;;;;;;;6.53;71.81;98780.50;2617561;47;20065;-65
2022/02/20 03:32:01;;;;;;;3.80;1.60;;;;;;;6.57;71.34;98787.91;2617113;54;20050;-65
2022/02/20 03:34:31;;;;;;;7.57;2.05;;;;;;;6.57;71.92;98795.78;2617381;54;20054;-65
2022/02/20 03:37:03;;;;;;;6.75;1.88;;;;;;;6.53;72.47;98794.50;2617195;54;20034;-65
2022/02/20 03:39:39;;;;;;;8.48;1.98;;;;;;;6.54;73.19;98796.13;2617222;46;20025;-65
2022/02/20 03:42:10;;;;;;;9.63;2.60;;;;;;;6.50;72.96;98794.00;2617165;54;20027;-65
2022/02/20 03:44:51;;;;;;;6.95;2.53;;;;;;;6.50;73.12;98797.44;2617003;47;20057;-65
2022/02/20 03:47:21;;;;;;;6.65;1.75;;;;;;;6.52;73.51;98802.50;2616776;54;20054;-65
2022/02/20 03:49:57;;;;;;;4.72;1.83;;;;;;;6.51;73.56;98806.94;2617188;51;20030;-65
2022/02/20 03:52:33;;;;;;;7.40;1.60;;;;;;;6.54;73.65;98814.50;2617189;54;20037;-65
2022/02/20 03:55:08;;;;;;;9.95;2.22;;;;;;;6.48;73.58;98816.97;2616994;54;20030;-65
2022/02/20 03:57:45;;;;;;;6.80;1.73;;;;;;;6.49;73.77;98823.84;2617615;47;20046;-67
2022/02/20 04:00:32;;;;;;;6.03;2.20;;;;;;;6.56;73.63;98824.84;2617390;54;20612;-67
2022/02/20 04:03:28;;;;;;;7.50;1.80;;;;;;;6.58;73.44;98822.88;2617397;54;20061;-67
2022/02/20 04:05:58;;;;;;;7.03;1.95;;;;;;;6.56;73.50;98840.59;2617089;47;20030;-67
2022/02/20 04:08:28;;;;;;;12.25;2.38;;;;;;;6.60;73.57;98836.66;2617522;54;20022;-67
2022/02/20 04:11:04;;;;;;;5.95;1.63;;;;;;;6.63;73.17;98837.13;2617263;54;20026;-67
2022/02/20 04:13:40;;;;;;;8.40;1.70;;;;;;;6.66;73.01;98843.88;2617278;54;20129;-65
2022/02/20 04:16:18;;;;;;;5.57;1.70;;;;;;;6.64;73.27;98844.03;2617494;47;20030;-63
2022/02/20 04:18:53;;;;;;;7.82;1.98;;;;;;;6.64;73.43;98843.22;2616992;54;20061;-65
2022/02/20 04:21:26;;;;;;;4.67;1.40;;;;;;;6.61;73.41;98847.00;2617325;54;21130;-65
2022/02/20 04:24:05;;;;;;;9.27;2.08;;;;;;;6.66;73.45;98852.56;2616906;47;20027;-65
2022/02/20 04:26:38;;;;;;;6.78;1.95;;;;;;;6.74;73.50;98857.00;2617045;54;20038;-65
2022/02/20 04:29:16;;;;;;;10.07;1.58;;;;;;;6.70;72.91;98861.75;2617166;47;20022;-64
2022/02/20 04:31:46;;;;;;;6.05;1.75;;;;;;;6.67;73.37;98862.09;2617255;47;20034;-64
2022/02/20 04:34:16;;;;;;;6.43;1.80;;;;;;;6.68;73.12;98861.09;2617322;47;20054;-64
2022/02/20 04:36:47;;;;;;;7.07;2.03;;;;;;;6.65;73.38;98871.97;2617026;54;20037;-63
2022/02/20 04:39:17;;;;;;;8.07;1.80;;;;;;;6.64;73.36;98866.84;2616997;54;20041;-63
2022/02/20 04:41:51;;;;;;;4.35;1.75;;;;;;;6.66;74.02;98865.72;2617089;51;20049;-63
2022/02/20 04:44:33;;;;;;;5.72;1.65;;;;;;;6.66;74.55;98863.09;2617247;54;20027;-63
2022/02/20 04:47:03;;;;;;;8.95;1.67;;;;;;;6.67;74.71;98859.47;2617045;54;20081;-63
2022/02/20 04:49:34;;;;;;;4.57;1.90;;;;;;;6.67;74.78;98861.28;2616398;47;20061;-66
2022/02/20 04:52:15;;;;;;;6.10;1.92;;;;;;;6.64;75.22;98851.09;2617138;54;20053;-63
2022/02/20 04:55:02;;;;;;;6.43;1.80;;;;;;;6.62;75.03;98860.97;2616664;54;20031;-66
2022/02/20 04:57:37;;;;;;;4.18;1.90;;;;;;;6.60;75.74;98857.66;2616894;54;20069;-64
2022/02/20 05:00:16;;;;;;;4.95;1.77;;;;;;;6.57;75.91;98863.25;2617105;54;20031;-65
2022/02/20 05:03:04;;;;;;;7.35;2.30;;;;;;;6.58;75.84;98865.72;2617477;54;20138;-63
2022/02/20 05:06:01;;;;;;;6.25;2.17;;;;;;;6.60;75.85;98860.28;2616866;54;20030;-63
2022/02/20 05:08:46;;;;;;;6.03;2.65;;;;;;;6.61;75.81;98860.13;2616862;54;20058;-63
2022/02/20 05:11:20;;;;;;;8.65;2.72;;;;;;;6.60;75.96;98858.47;2616740;54;20034;-66
2022/02/20 05:14:00;;;;;;;6.50;2.75;;;;;;;6.63;76.25;98862.59;2616965;47;20072;-65
2022/02/20 05:16:33;;;;;;;6.57;2.17;;;;;;;6.61;76.05;98862.78;2616732;54;20117;-64
2022/02/20 05:19:07;;;;;;;9.50;2.55;;;;;;;6.59;76.40;98853.41;2617090;54;20034;-65
2022/02/20 05:21:44;;;;;;;10.55;2.15;;;;;;;6.57;76.25;98853.56;2616548;54;20026;-65
2022/02/20 05:24:14;;;;;;;7.72;2.05;;;;;;;6.58;76.10;98844.69;2616639;47;20038;-65
2022/02/20 05:26:44;;;;;;;5.55;1.80;;;;;;;6.61;76.05;98840.91;2616849;54;20026;-65
2022/02/20 05:29:20;;;;;;;3.42;1.65;;;;;;;6.63;76.18;98841.56;2616834;54;20023;-65
2022/02/20 05:31:55;;;;;;;4.07;1.77;;;;;;;6.64;76.03;98845.84;2616838;54;20039;-61
2022/02/20 05:34:34;;;;;;;4.80;1.70;;;;;;;6.58;76.64;98844.69;2616757;51;20030;-66
2022/02/20 05:37:07;;;;;;;4.85;1.55;;;;;;;6.56;76.36;98848.47;2617086;54;20035;-65
2022/02/20 05:39:43;;;;;;;5.45;1.60;;;;;;;6.61;76.71;98848.78;2617124;54;20158;-66
2022/02/20 05:42:13;;;;;;;6.55;1.70;;;;;;;6.58;76.73;98854.41;2617045;54;20029;-66
2022/02/20 05:44:52;;;;;;;4.03;1.38;;;;;;;6.57;76.73;98853.56;2617513;54;20037;-64
2022/02/20 05:47:21;;;;;;;4.65;1.55;;;;;;;6.55;76.54;98850.28;2617817;54;20035;-65
2022/02/20 05:49:53;;;;;;;6.90;1.80;;;;;;;6.55;76.49;98855.53;2618728;31;20502;-66
2022/02/20 05:52:22;;;;;;;4.15;1.80;;;;;;;6.56;76.43;98849.28;2617452;54;20593;-66
2022/02/20 05:54:52;;;;;;;4.93;1.90;;;;;;;6.59;76.91;98837.63;2618199;54;20049;-66
2022/02/20 05:57:21;;;;;;;5.00;1.85;;;;;;;6.57;76.75;98842.22;2618439;54;20031;-67
2022/02/20 06:00:02;;;;;;;5.32;1.67;;;;;;;6.59;76.80;98846.34;2618514;39;20522;-67
2022/02/20 06:02:35;;;;;;;4.97;1.73;;;;;;;6.61;76.68;98846.16;2617644;54;20538;-67
2022/02/20 06:05:05;;;;;;;5.75;1.90;;;;;;;6.60;76.77;98844.53;2618084;47;20041;-67
2022/02/20 06:07:48;;;;;;;3.22;1.38;;;;;;;6.58;77.33;98843.88;2617777;50;20534;-66
2022/02/20 06:10:49;;;;;;;7.65;2.08;;;;;;;6.53;77.68;98828.63;2617681;47;20050;-68
2022/02/20 06:13:44;;;;;;;5.57;2.33;;;;;;;6.48;78.08;98841.41;2618035;52;20038;-65
2022/02/20 06:16:35;;;;;;;8.15;2.08;;;;;;;6.47;78.23;98831.91;2618642;54;20031;-66
2022/02/20 06:19:27;;;;;;;8.07;2.05;;;;;;;6.48;77.96;98830.09;2618560;54;20057;-66
2022/02/20 06:22:09;;;;;;;9.07;2.53;;;;;;;6.50;78.26;98833.38;2618113;39;20407;-67
2022/02/20 06:24:53;;;;;;;3.50;1.63;;;;;;;6.48;77.93;98832.72;2618111;54;20071;-66
2022/02/20 06:27:42;;;;;;;6.38;2.08;;;;;;;6.51;77.91;98846.34;2618335;54;20053;-67
2022/02/20 06:30:26;;;;;;;8.35;2.00;;;;;;;6.52;77.76;98847.16;2617684;47;20521;-67
2022/02/20 06:32:59;;;;;;;5.53;2.47;;;;;;;6.54;78.10;98842.56;2617671;54;20022;-67
2022/02/20 06:35:28;;;;;;;5.35;1.50;;;;;;;6.54;77.99;98842.56;2617494;54;20026;-67
2022/02/20 06:37:58;;;;;;;6.45;1.92;;;;;;;6.51;78.39;98842.91;2618261;54;20154;-66
2022/02/20 06:40:28;;;;;;;4.82;1.70;;;;;;;6.52;78.43;98857.66;2617790;54;20552;-67
2022/02/20 06:42:59;;;;;;;7.97;2.15;;;;;;;6.55;78.41;98854.72;2617555;47;20037;-64
2022/02/20 06:45:30;;;;;;;9.57;2.10;;;;;;;6.57;78.31;98860.59;2617695;47;20554;-68
2022/02/20 06:48:26;;;;;;;3.53;1.83;;;;;;;6.59;77.89;98853.41;2617920;46;20065;-65
2022/02/20 06:51:08;;;;;;;6.63;2.10;;;;;;;6.59;78.21;98867.34;2617693;54;20034;-67
2022/02/20 06:54:10;;;;;;;10.68;2.20;;;;;;;6.59;78.42;98867.34;2617150;47;20142;-67
2022/02/20 06:56:45;;;;;;;5.45;2.13;;;;;;;6.61;78.48;98872.44;2617787;39;20410;-69
2022/02/20 06:59:15;;;;;;;7.68;2.30;;;;;;;6.59;78.54;98869.97;2618738;39;20437;-68
2022/02/20 07:01:44;;;;;;;11.68;2.97;;;;;;;6.57;78.21;98858.84;2617549;47;20046;-69
2022/02/20 07:04:16;;;;;;;8.48;2.55;;;;;;;6.59;78.15;98869.16;2617745;39;20465;-64
2022/02/20 07:06:47;;;;;;;8.68;3.05;;;;;;;6.58;78.40;98857.84;2618499;54;20073;-66
2022/02/20 07:09:17;;;;;;;12.63;3.28;;;;;;;6.59;78.15;98854.22;2617603;47;20034;-67
2022/02/20 07:11:46;;;;;;;6.13;2.60;;;;;;;6.54;78.40;98851.28;2617671;47;20031;-66
2022/02/20 07:14:16;;;;;;;6.35;2.90;;;;;;;6.57;78.14;98860.59;2618509;54;20089;-65
2022/02/20 07:16:46;;;;;;;4.85;2.55;;;;;;;6.56;78.35;98858.97;2619646;54;20077;-67
2022/02/20 07:19:18;;;;;;;4.93;2.50;;;;;;;6.62;78.18;98853.91;2618800;47;20023;-67
2022/02/20 07:21:47;;;;;;;7.60;2.90;;;;;;;6.64;78.27;98837.97;2620393;54;20070;-67
2022/02/20 07:24:19;;;;;;;5.88;2.65;;;;;;;6.65;78.32;98852.72;2619925;54;20567;-67
2022/02/20 07:26:49;;;;;;;6.65;2.40;;;;;;;6.57;78.34;98858.84;2620165;54;20030;-66
2022/02/20 07:29:18;;;;;;;5.82;2.30;;;;;;;6.60;78.44;98853.22;2620113;54;20030;-65
2022/02/20 07:31:48;;;;;;;7.75;2.50;;;;;;;6.57;78.76;98852.72;2621429;54;20025;-65
2022/02/20 07:34:20;;;;;;;7.30;2.55;;;;;;;6.58;79.17;98843.88;2620752;47;20018;-65
2022/02/20 07:36:49;;;;;;;2.95;2.35;;;;;;;6.55;79.41;98846.84;2618838;54;20030;-65
2022/02/20 07:39:20;;;;;;;6.32;2.55;;;;;;;6.53;79.57;98865.41;2618150;54;20039;-65
2022/02/20 07:41:50;;;;;;;5.70;2.83;;;;;;;6.53;80.10;98867.19;2617348;54;20062;-64
2022/02/20 07:44:19;;;;;;;7.15;2.70;;;;;;;6.53;80.28;98873.28;2617768;39;20441;-65
2022/02/20 07:46:49;;;;;;;7.43;2.88;;;;;;;6.52;80.22;98860.28;2617216;54;20041;-65
2022/02/20 07:49:21;;;;;;;5.45;2.40;;;;;;;6.48;80.03;98880.81;2617726;54;20130;-66
2022/02/20 07:51:51;;;;;;;10.65;3.05;;;;;;;6.46;80.58;98888.03;2617325;54;20026;-66
2022/02/20 07:54:20;;;;;;;5.47;2.50;;;;;;;6.43;80.71;98864.72;2617019;54;20287;-65
2022/02/20 07:56:50;;;;;;;6.05;2.72;;;;;;;6.45;80.08;98874.09;2617892;54;20553;-65
2022/02/20 07:59:20;;;;;;;9.38;2.80;;;;;;;6.48;80.20;98872.13;2618629;54;20066;-65
2022/02/20 08:01:50;;;;;;;8.75;3.38;;;;;;;6.51;79.94;98879.66;2617355;54;20098;-65
2022/02/20 08:04:22;;;;;;;7.78;2.67;;;;;;;6.52;80.40;98878.69;2617250;54;20026;-67
2022/02/20 08:06:53;;;;;;;8.27;3.10;;;;;;;6.55;80.38;98881.81;2618097;54;20839;-65
2022/02/20 08:09:23;;;;;;;8.88;2.90;;;;;;;6.55;80.46;98886.25;2617518;54;20038;-64
2022/02/20 08:11:53;;;;;;;8.70;3.20;;;;;;;6.53;79.89;98878.53;2617092;53;20030;-66
2022/02/20 08:14:23;;;;;;;3.67;2.65;;;;;;;6.58;79.86;98880.66;2617570;54;20077;-65
2022/02/20 08:16:52;;;;;;;5.43;2.88;;;;;;;6.61;79.87;98867.19;2618239;39;20438;-65
2022/02/20 08:19:24;;;;;;;5.38;3.92;;;;;;;6.58;79.98;98876.22;2617771;54;20525;-65
2022/02/20 08:21:54;;;;;;;5.25;2.85;;;;;;;6.64;80.05;98878.19;2617729;54;20038;-65
2022/02/20 08:24:24;;;;;;;6.38;2.38;;;;;;;6.60;80.11;98886.56;2617775;54;20554;-66
2022/02/20 08:26:54;;;;;;;8.25;2.90;;;;;;;6.64;80.27;98874.72;2618410;39;20425;-67
2022/02/20 08:29:24;;;;;;;4.95;2.55;;;;;;;6.69;80.24;98882.94;2617375;54;20023;-64
2022/02/20 08:31:54;;;;;;;4.93;2.30;;;;;;;6.70;79.74;98880.16;2617778;54;20062;-66
2022/02/20 08:34:26;;;;;;;4.60;2.58;;;;;;;6.67;80.43;98880.47;2618703;54;20031;-68
2022/02/20 08:36:55;;;;;;;5.28;2.88;;;;;;;6.64;80.48;98883.44;2620579;54;20035;-68
2022/02/20 08:39:25;;;;;;;8.07;3.72;;;;;;;6.59;80.81;98879.66;2620024;54;20564;-67
2022/02/20 08:41:54;;;;;;;6.20;2.47;;;;;;;6.59;80.78;98875.22;2620930;54;20030;-66
2022/02/20 08:44:24;;;;;;;6.03;2.10;;;;;;;6.61;81.15;98886.41;2620332;54;20074;-68
2022/02/20 08:46:55;;;;;;;4.45;2.53;;;;;;;6.60;81.56;98892.63;2620648;54;20560;-66
2022/02/20 08:49:27;;;;;;;4.68;2.90;;;;;;;6.67;81.67;98892.78;2620396;54;20026;-68
2022/02/20 08:51:58;;;;;;;5.72;2.80;;;;;;;6.74;81.42;98883.28;2621097;46;20061;-66
2022/02/20 08:54:27;;;;;;;9.35;2.60;;;;;;;6.78;81.46;98871.44;2622820;54;20034;-66
2022/02/20 08:56:57;;;;;;;5.90;2.15;;;;;;;6.81;81.44;98860.59;2620963;54;20038;-69
2022/02/20 08:59:27;;;;;;;3.72;2.30;;;;;;;6.79;82.15;98872.25;2621109;54;20052;-68
2022/02/20 09:01:57;;;;;;;3.13;1.63;;;;;;;6.78;82.13;98868.00;2621585;54;20039;-67
2022/02/20 09:04:29;;;;;;;3.60;1.65;;;;;;;6.82;82.08;98877.19;2621772;54;20041;-66
2022/02/20 09:06:59;;;;;;;3.70;1.90;;;;;;;6.90;82.12;98864.03;2620580;54;20023;-68
2022/02/20 09:09:29;;;;;;;2.58;1.88;;;;;;;6.94;81.74;98863.53;2621087;39;20466;-69
2022/02/20 09:12:00;;;;;;;2.22;1.80;;;;;;;6.98;81.27;98860.53;2621826;54;20042;-68
2022/02/20 09:14:29;;;;;;;3.70;2.75;;;;;;;6.99;80.50;98846.44;2620562;54;20026;-69
2022/02/20 09:17:00;;;;;;;5.32;2.10;;;;;;;6.95;80.82;98854.66;2622187;54;20034;-68
2022/02/20 09:19:32;;;;;;;2.58;1.60;;;;;;;6.98;81.11;98864.03;2622950;54;20090;-68
2022/02/20 09:22:02;;;;;;;2.53;1.67;;;;;;;6.98;80.62;98871.06;2623663;54;20034;-65
2022/02/20 09:24:32;;;;;;;4.13;1.75;;;;;;;7.01;80.13;98874.19;2621854;54;20045;-68
2022/02/20 09:27:01;;;;;;;2.03;1.90;;;;;;;6.97;80.06;98878.13;2620762;54;20534;-68
2022/02/20 09:29:33;;;;;;;2.33;1.65;;;;;;;6.93;79.84;98880.25;2625497;54;20034;-70
2022/02/20 09:32:08;;;;;;;1.63;1.48;;;;;;;6.84;80.09;98880.47;2625459;54;20038;-68
2022/02/20 09:34:40;;;;;;;4.15;2.20;;;;;;;6.77;80.29;98869.78;2625721;54;20030;-67
2022/02/20 09:37:10;;;;;;;5.40;2.15;;;;;;;6.80;80.56;98871.28;2625322;54;20022;-68
2022/02/20 09:39:40;;;;;;;2.65;2.20;;;;;;;6.76;80.89;98875.22;2623581;54;20042;-69
2022/02/20 09:42:10;;;;;;;7.15;2.40;;;;;;;6.81;80.91;98878.16;2625528;54;20038;-66
2022/02/20 09:44:40;;;;;;;4.25;2.15;;;;;;;6.82;80.77;98867.50;2625550;54;20038;-66
2022/02/20 09:47:11;;;;;;;3.75;1.88;;;;;;;6.86;80.91;98868.00;2625743;54;20114;-65
2022/02/20 09:49:46;;;;;;;2.72;1.73;;;;;;;6.85;81.25;98855.81;2624211;54;20038;-67
2022/02/20 09:52:16;;;;;;;4.03;1.73;;;;;;;6.87;80.98;98848.59;2625407;54;20042;-65
2022/02/20 09:54:46;;;;;;;3.30;1.73;;;;;;;6.94;81.45;98850.41;2625617;54;20037;-65
2022/02/20 09:57:16;;;;;;;2.30;1.52;;;;;;;7.07;81.54;98834.09;2624989;46;20042;-67
2022/02/20 09:59:46;;;;;;;1.70;1.25;;;;;;;7.13;81.17;98848.34;2625702;39;20466;-64
2022/02/20 10:02:17;;;;;;;3.88;1.48;;;;;;;7.25;81.21;98849.63;2626410;54;20038;-66
2022/02/20 10:04:55;;;;;;;3.47;1.50;;;;;;;7.38;80.78;98854.34;2626046;54;20061;-65
2022/02/20 10:07:33;;;;;;;4.18;1.63;;;;;;;7.50;80.19;98842.44;2626219;47;20034;-65
2022/02/20 10:10:07;;;;;;;2.00;1.58;;;;;;;7.57;79.75;98842.59;2624576;54;20162;-65
2022/02/20 10:12:37;;;;;;;1.85;1.30;;;;;;;7.69;79.34;98839.41;2625151;54;20034;-66
2022/02/20 10:15:28;;;;;;;4.25;2.15;;;;;;;7.74;79.62;98848.59;2623615;54;20030;-64
2022/02/20 10:18:01;;;;;;;3.17;1.65;;;;;;;7.72;78.91;98830.34;2621996;54;20023;-63
2022/02/20 10:21:03;;;;;;;4.82;2.47;;;;;;;7.77;79.27;98824.56;2624750;54;20090;-64
2022/02/20 10:23:52;;;;;;;3.70;1.77;;;;;;;7.77;78.91;98816.66;2623844;54;20057;-64
2022/02/20 10:27:09;;;;;;;4.28;1.80;;;;;;;7.73;79.30;98803.03;2623076;54;20062;-65
2022/02/20 10:30:20;;;;;;;2.05;1.33;;;;;;;7.74;79.27;98806.47;2622938;54;20029;-64
2022/02/20 10:33:05;;;;;;;1.95;1.35;;;;;;;7.78;79.14;98784.91;2623061;54;20030;-64
2022/02/20 10:35:36;;;;;;;2.42;1.35;;;;;;;7.88;79.15;98792.59;2622714;39;20441;-67
2022/02/20 10:38:13;;;;;;;2.75;1.92;;;;;;;8.04;79.32;98779.31;2619285;39;20474;-65
2022/02/20 10:40:44;;;;;;;2.80;1.45;;;;;;;8.09;78.39;98768.25;2618566;46;20552;-64
2022/02/20 10:43:27;;;;;;;2.92;1.38;;;;;;;8.16;78.66;98780.53;2619379;39;20422;-65
2022/02/20 10:46:20;;;;;;;4.10;1.88;;;;;;;8.28;78.44;98765.09;2618530;54;20039;-65
2022/02/20 10:48:52;;;;;;;1.65;1.20;;;;;;;8.33;77.97;98767.22;2618070;54;20031;-65
2022/02/20 10:51:23;;;;;;;2.33;1.42;;;;;;;8.24;78.34;98763.81;2618707;54;20018;-66
2022/02/20 10:53:56;;;;;;;1.70;1.25;;;;;;;8.21;77.82;98753.66;2617773;54;20613;-65
2022/02/20 10:56:40;;;;;;;2.08;1.17;;;;;;;8.13;77.76;98753.72;2617890;47;20045;-65
2022/02/20 10:59:10;;;;;;;2.30;1.25;;;;;;;8.00;77.91;98756.97;2617714;47;20047;-65
2022/02/20 11:01:39;;;;;;;3.63;1.27;;;;;;;7.93;77.98;98754.19;2618213;54;20038;-65
2022/02/20 11:04:11;;;;;;;3.55;1.52;;;;;;;8.04;78.87;98766.13;2617926;54;20065;-65
2022/02/20 11:06:44;;;;;;;2.20;1.40;;;;;;;8.09;78.50;98762.97;2618896;54;20050;-65
2022/02/20 11:09:17;;;;;;;2.08;0.63;;;;;;;8.05;78.37;98772.22;2618388;54;20552;-65
2022/02/20 11:11:50;;;;;;;3.67;1.35;;;;;;;7.93;78.36;98769.19;2618155;54;20067;-65
2022/02/20 11:14:23;;;;;;;2.60;1.10;;;;;;;7.82;78.77;98751.97;2618199;54;20884;-65
2022/02/20 11:16:54;;;;;;;1.25;0.90;;;;;;;7.76;79.26;98755.31;2618183;54;20026;-65
2022/02/20 11:19:26;;;;;;;1.20;0.65;;;;;;;7.73;78.99;98745.16;2617787;54;20042;-65
2022/02/20 11:22:01;;;;;;;4.10;1.17;;;;;;;7.71;79.66;98741.84;2617483;54;20057;-67
2022/02/20 11:24:35;;;;;;;2.30;1.10;;;;;;;7.71;79.87;98731.34;2617233;54;20089;-65
2022/02/20 11:27:07;;;;;;;1.58;0.98;;;;;;;7.74;79.90;98733.63;2617492;47;20027;-64
2022/02/20 11:29:37;;;;;;;2.78;1.23;;;;;;;7.79;79.69;98722.56;2617367;47;20065;-64
2022/02/20 11:32:09;;;;;;;4.28;1.63;;;;;;;7.80;79.35;98722.41;2617344;54;20118;-64
2022/02/20 11:34:44;;;;;;;1.65;0.85;;;;;;;7.75;79.05;98706.31;2617119;47;20545;-66
2022/02/20 11:37:15;;;;;;;2.63;1.58;;;;;;;7.80;79.32;98711.88;2617534;47;20026;-63
2022/02/20 11:40:12;;;;;;;2.67;1.17;;;;;;;7.82;79.34;98723.03;2617868;54;20038;-66
2022/02/20 11:43:01;;;;;;;4.25;1.40;;;;;;;7.75;79.71;98718.66;2617789;54;20113;-63
2022/02/20 11:45:33;;;;;;;0.90;0.80;;;;;;;7.80;80.29;98709.25;2616996;47;20035;-65
2022/02/20 11:48:03;;;;;;;3.72;1.08;;;;;;;7.82;80.06;98703.78;2617880;54;20061;-63
2022/02/20 11:50:37;;;;;;;2.15;1.20;;;;;;;7.86;79.58;98716.41;2617417;47;20042;-67
2022/02/20 11:53:09;;;;;;;3.17;1.15;;;;;;;7.84;79.32;98702.63;2617427;54;20093;-65
2022/02/20 11:55:43;;;;;;;3.33;1.52;;;;;;;7.84;79.56;98722.88;2617365;54;20038;-63
2022/02/20 11:58:23;;;;;;;1.42;0.95;;;;;;;7.89;79.27;98697.66;2617341;47;20026;-65
2022/02/20 12:01:12;;;;;;;3.33;1.25;;;;;;;8.03;79.03;98711.81;2617811;54;20142;-67
2022/02/20 12:04:10;;;;;;;3.38;1.73;;;;;;;8.08;78.96;98691.06;2617238;47;20061;-64
2022/02/20 12:06:43;;;;;;;1.23;0.90;;;;;;;8.12;78.86;98676.56;2618069;31;20513;-66
2022/02/20 12:09:27;;;;;;;1.65;1.20;;;;;;;8.22;77.96;98683.38;2619924;39;20537;-64
2022/02/20 12:11:59;;;;;;;3.53;1.15;;;;;;;8.24;77.13;98682.16;2618753;54;20074;-64
2022/02/20 12:14:30;;;;;;;3.33;1.50;;;;;;;8.25;77.53;98686.47;2618019;51;20040;-64